createdAt,value
2018-05-21T00:01:37.298Z,15.50
2018-05-21T00:04:04.767Z,13.03
2018-05-21T00:06:32.253Z,12.73
2018-05-21T00:08:59.795Z,12.20
2018-05-21T00:11:27.368Z,11.80
2018-05-21T00:13:54.946Z,11.73
2018-05-21T00:16:23.218Z,11.83
2018-05-21T00:18:51.462Z,10.97
2018-05-21T00:21:19.017Z,11.97
2018-05-21T00:23:46.495Z,11.13
2018-05-21T00:26:13.955Z,15.27
2018-05-21T00:28:41.509Z,12.47
2018-05-21T00:31:08.987Z,11.97
2018-05-21T00:33:37.252Z,12.20
2018-05-21T00:36:05.485Z,13.10
2018-05-21T00:38:32.991Z,14.00
2018-05-21T00:41:01.208Z,13.33
2018-05-21T00:43:28.666Z,15.93
2018-05-21T00:45:56.166Z,15.60
2018-05-21T00:48:24.492Z,15.33
2018-05-21T00:50:52.900Z,13.27
2018-05-21T00:53:20.355Z,14.17
2018-05-21T00:55:47.956Z,11.77
2018-05-21T00:58:16.220Z,15.60
2018-05-21T01:00:43.725Z,14.30
2018-05-21T01:03:11.178Z,16.50
2018-05-21T01:05:38.681Z,11.63
2018-05-21T01:08:06.160Z,12.87
2018-05-21T01:10:34.408Z,12.10
2018-05-21T01:13:01.874Z,13.87
2018-05-21T01:15:29.494Z,14.43
2018-05-21T01:17:56.975Z,14.57
2018-05-21T01:20:24.466Z,10.80
2018-05-21T01:22:51.966Z,11.83
2018-05-21T01:25:19.447Z,12.30
2018-05-21T01:27:46.904Z,14.13
2018-05-21T01:30:14.397Z,15.50
2018-05-21T01:32:42.635Z,11.43
2018-05-21T01:35:10.140Z,12.73
2018-05-21T01:37:38.470Z,12.77
2018-05-21T01:40:05.959Z,13.60
2018-05-21T01:42:34.217Z,11.30
2018-05-21T01:45:01.703Z,12.80
2018-05-21T01:47:29.192Z,12.77
2018-05-21T01:49:56.653Z,13.40
2018-05-21T01:52:24.150Z,11.60
2018-05-21T01:54:51.798Z,12.07
2018-05-21T01:57:19.376Z,12.23
2018-05-21T01:59:46.848Z,13.50
2018-05-21T02:02:15.100Z,12.33
2018-05-21T02:04:42.653Z,13.80
2018-05-21T02:07:10.206Z,12.73
2018-05-21T02:09:37.722Z,12.67
2018-05-21T02:12:05.290Z,14.23
2018-05-21T02:14:32.769Z,12.67
2018-05-21T02:17:00.225Z,12.90
2018-05-21T02:19:27.868Z,12.87
2018-05-21T02:21:55.380Z,12.57
2018-05-21T02:24:22.832Z,14.40
2018-05-21T02:26:50.297Z,12.40
2018-05-21T02:29:17.779Z,13.07
2018-05-21T02:31:45.263Z,11.70
2018-05-21T02:34:12.719Z,15.67
2018-05-21T02:36:40.168Z,13.77
2018-05-21T02:39:07.650Z,12.90
2018-05-21T02:41:35.152Z,15.30
2018-05-21T02:44:03.439Z,13.33
2018-05-21T02:46:30.929Z,13.47
2018-05-21T02:48:58.423Z,13.63
2018-05-21T02:51:25.990Z,17.57
2018-05-21T02:53:53.528Z,14.43
2018-05-21T02:56:21.093Z,12.40
2018-05-21T02:58:48.660Z,14.20
2018-05-21T03:01:16.268Z,8.47
2018-05-21T03:03:43.735Z,7.03
2018-05-21T03:06:11.238Z,8.87
2018-05-21T03:08:39.458Z,5.37
2018-05-21T03:11:06.938Z,5.30
2018-05-21T03:13:34.403Z,4.67
2018-05-21T03:16:01.856Z,6.70
2018-05-21T03:18:29.322Z,4.53
2018-05-21T03:20:56.776Z,5.97
2018-05-21T03:23:24.242Z,3.43
2018-05-21T03:25:51.808Z,6.10
2018-05-21T03:28:19.418Z,4.90
2018-05-21T03:30:46.973Z,5.03
2018-05-21T03:33:14.485Z,5.53
2018-05-21T03:35:42.049Z,5.07
2018-05-21T03:38:09.542Z,3.07
2018-05-21T03:40:37.019Z,4.57
2018-05-21T03:43:04.506Z,5.23
2018-05-21T03:45:31.955Z,5.20
2018-05-21T03:47:59.454Z,3.07
2018-05-21T03:50:27.021Z,6.30
2018-05-21T03:52:54.516Z,4.23
2018-05-21T03:55:21.960Z,4.27
2018-05-21T03:57:49.424Z,2.27
2018-05-21T04:00:28.855Z,3.33
2018-05-21T04:03:08.077Z,6.43
2018-05-21T04:05:35.578Z,5.37
2018-05-21T04:08:03.044Z,3.13
2018-05-21T04:10:30.622Z,3.40
2018-05-21T04:12:58.911Z,3.20
2018-05-21T04:15:26.376Z,2.70
2018-05-21T04:17:53.824Z,2.53
2018-05-21T04:20:21.303Z,4.47
2018-05-21T04:22:48.822Z,4.73
2018-05-21T04:25:16.353Z,5.10
2018-05-21T04:27:43.920Z,5.83
2018-05-21T04:30:11.467Z,6.63
2018-05-21T04:32:38.951Z,7.57
2018-05-21T04:35:06.555Z,5.27
2018-05-21T04:37:34.074Z,6.40
2018-05-21T04:40:01.525Z,4.50
2018-05-21T04:42:28.998Z,6.60
2018-05-21T04:44:57.204Z,5.63
2018-05-21T04:47:24.651Z,7.43
2018-05-21T04:49:52.674Z,6.87
2018-05-21T04:52:20.219Z,6.00
2018-05-21T04:54:47.659Z,4.63
2018-05-21T04:57:15.146Z,6.97
2018-05-21T04:59:42.709Z,4.93
2018-05-21T05:02:10.247Z,4.93
2018-05-21T05:04:38.205Z,5.10
2018-05-21T05:07:05.733Z,8.03
2018-05-21T05:09:33.304Z,5.10
2018-05-21T05:12:00.763Z,4.40
2018-05-21T05:14:28.244Z,4.00
2018-05-21T05:16:55.778Z,7.83
2018-05-21T05:19:23.276Z,7.37
2018-05-21T05:21:50.750Z,4.40
2018-05-21T05:24:18.203Z,5.37
2018-05-21T05:26:45.760Z,6.47
2018-05-21T05:29:13.204Z,4.30
2018-05-21T05:31:40.686Z,6.87
2018-05-21T05:34:08.925Z,3.60
2018-05-21T05:36:36.439Z,4.20
2018-05-21T05:39:03.921Z,6.37
2018-05-21T05:41:31.398Z,6.33
2018-05-21T05:43:58.849Z,7.43
2018-05-21T05:46:26.306Z,6.40
2018-05-21T05:48:53.817Z,6.63
2018-05-21T05:51:21.340Z,5.53
2018-05-21T05:53:48.901Z,6.97
2018-05-21T05:56:17.063Z,5.90
2018-05-21T05:58:44.534Z,3.73
2018-05-21T06:01:12.001Z,5.93
2018-05-21T06:03:39.526Z,5.60
2018-05-21T06:06:07.014Z,3.33
2018-05-21T06:08:34.565Z,4.17
2018-05-21T06:11:01.996Z,3.73
2018-05-21T06:13:29.463Z,5.03
2018-05-21T06:15:56.923Z,5.07
2018-05-21T06:18:24.656Z,6.63
2018-05-21T06:20:52.117Z,4.00
2018-05-21T06:23:19.572Z,4.67
2018-05-21T06:25:47.085Z,5.40
2018-05-21T06:28:15.030Z,4.30
2018-05-21T06:30:42.510Z,8.53
2018-05-21T06:33:09.988Z,7.00
2018-05-21T06:35:38.345Z,5.57
2018-05-21T06:38:05.842Z,6.37
2018-05-21T06:40:33.287Z,5.03
2018-05-21T06:43:00.739Z,4.70
2018-05-21T06:45:28.195Z,3.53
2018-05-21T06:47:55.676Z,6.93
2018-05-21T06:50:23.127Z,3.90
2018-05-21T06:52:51.136Z,3.60
2018-05-21T06:55:18.621Z,6.47
2018-05-21T06:57:46.858Z,3.90
2018-05-21T07:00:14.300Z,5.23
2018-05-21T07:02:41.781Z,3.83
2018-05-21T07:05:09.299Z,5.75
2018-05-21T07:07:36.722Z,8.55
2018-05-21T07:10:04.971Z,6.22
2018-05-21T07:12:32.426Z,3.90
2018-05-21T07:14:59.999Z,6.65
2018-05-21T07:17:27.568Z,5.03
2018-05-21T07:19:55.881Z,3.50
2018-05-21T07:22:23.319Z,4.87
2018-05-21T07:24:51.412Z,5.05
2018-05-21T07:27:18.879Z,6.50
2018-05-21T07:29:46.380Z,6.00
2018-05-21T07:32:13.852Z,4.37
2018-05-21T07:34:42.059Z,8.02
2018-05-21T07:37:09.526Z,3.83
2018-05-21T07:39:36.970Z,3.83
2018-05-21T07:42:04.461Z,5.53
2018-05-21T07:44:31.932Z,4.12
2018-05-21T07:46:59.500Z,5.80
2018-05-21T07:49:27.091Z,6.82
2018-05-21T07:51:54.556Z,5.47
2018-05-21T07:54:22.065Z,7.55
2018-05-21T07:56:49.524Z,4.18
2018-05-21T07:59:16.977Z,5.57
2018-05-21T08:01:44.535Z,4.60
2018-05-21T08:04:12.005Z,4.50
2018-05-21T08:06:39.515Z,6.20
2018-05-21T08:09:07.034Z,3.95
2018-05-21T08:11:35.255Z,5.72
2018-05-21T08:14:02.735Z,4.00
2018-05-21T08:16:30.318Z,5.40
2018-05-21T08:18:57.802Z,6.65
2018-05-21T08:21:25.247Z,4.60
2018-05-21T08:23:53.581Z,7.10
2018-05-21T08:26:21.073Z,4.25
2018-05-21T08:28:49.343Z,4.20
2018-05-21T08:31:16.801Z,7.85
2018-05-21T08:33:45.082Z,4.40
2018-05-21T08:36:13.312Z,4.68
2018-05-21T08:38:40.765Z,6.97
2018-05-21T08:41:08.216Z,5.97
2018-05-21T08:43:35.714Z,10.00
2018-05-21T08:46:03.204Z,8.63
2018-05-21T08:48:30.689Z,6.25
2018-05-21T08:50:58.173Z,10.55
2018-05-21T08:53:27.261Z,9.55
2018-05-21T08:55:54.742Z,6.53
2018-05-21T08:58:22.992Z,4.20
2018-05-21T09:00:50.445Z,5.80
2018-05-21T09:03:17.925Z,5.50
2018-05-21T09:05:45.513Z,4.95
2018-05-21T09:08:13.096Z,4.43
2018-05-21T09:10:40.603Z,6.53
2018-05-21T09:13:09.612Z,6.43
2018-05-21T09:15:37.165Z,6.20
2018-05-21T09:18:05.378Z,4.70
2018-05-21T09:20:32.834Z,6.07
2018-05-21T09:23:00.394Z,6.53
2018-05-21T09:25:27.866Z,5.40
2018-05-21T09:27:55.308Z,7.80
2018-05-21T09:30:22.781Z,4.20
2018-05-21T09:32:50.313Z,4.80
2018-05-21T09:35:17.680Z,4.70
2018-05-21T09:37:45.131Z,5.47
2018-05-21T09:40:12.633Z,5.53
2018-05-21T09:42:40.124Z,5.93
2018-05-21T09:45:08.352Z,5.20
2018-05-21T09:47:35.807Z,5.18
2018-05-21T09:50:03.302Z,7.45
2018-05-21T09:52:31.535Z,6.62
2018-05-21T09:54:58.989Z,4.45
2018-05-21T09:57:26.461Z,4.55
2018-05-21T09:59:53.914Z,9.98
2018-05-21T10:02:21.447Z,7.03
2018-05-21T10:04:48.924Z,4.00
2018-05-21T10:07:16.395Z,4.43
2018-05-21T10:09:43.972Z,4.95
2018-05-21T10:12:11.548Z,4.32
2018-05-21T10:14:38.965Z,3.75
2018-05-21T10:17:06.424Z,5.25
2018-05-21T10:19:33.962Z,4.30
2018-05-21T10:22:02.189Z,4.50
2018-05-21T10:24:30.438Z,4.45
2018-05-21T10:26:57.922Z,3.60
2018-05-21T10:29:26.165Z,5.43
2018-05-21T10:31:53.670Z,5.57
2018-05-21T10:34:21.119Z,4.65
2018-05-21T10:36:49.387Z,5.50
2018-05-21T10:39:17.645Z,3.65
2018-05-21T10:41:45.132Z,4.22
2018-05-21T10:44:13.380Z,6.80
2018-05-21T10:46:40.832Z,5.03
2018-05-21T10:49:08.289Z,6.15
2018-05-21T10:51:35.755Z,4.55
2018-05-21T10:54:04.026Z,3.22
2018-05-21T10:56:31.471Z,4.05
2018-05-21T10:58:59.089Z,4.20
2018-05-21T11:01:26.613Z,3.65
2018-05-21T11:03:54.857Z,6.47
2018-05-21T11:06:22.381Z,11.60
2018-05-21T11:08:49.874Z,4.20
2018-05-21T11:11:17.368Z,3.37
2018-05-21T11:13:45.619Z,5.03
2018-05-21T11:16:13.186Z,3.37
2018-05-21T11:18:40.663Z,6.50
2018-05-21T11:21:08.970Z,3.75
2018-05-21T11:23:36.443Z,7.10
2018-05-21T11:26:03.889Z,4.05
2018-05-21T11:28:31.361Z,4.05
2018-05-21T11:30:58.804Z,4.30
2018-05-21T11:33:26.288Z,3.60
2018-05-21T11:35:53.881Z,4.00
2018-05-21T11:38:22.140Z,4.25
2018-05-21T11:40:50.106Z,5.45
2018-05-21T11:43:17.678Z,5.57
2018-05-21T11:45:45.886Z,5.47
2018-05-21T11:48:13.352Z,5.97
2018-05-21T11:50:40.983Z,4.35
2018-05-21T11:53:08.360Z,3.55
2018-05-21T11:55:35.813Z,5.87
2018-05-21T11:58:03.300Z,3.87
2018-05-21T12:00:30.848Z,4.53
2018-05-21T12:02:58.334Z,4.15
2018-05-21T12:05:25.888Z,3.33
2018-05-21T12:07:53.396Z,8.10
2018-05-21T12:10:20.893Z,3.70
2018-05-21T12:12:48.456Z,3.33
2018-05-21T12:15:16.039Z,4.00
2018-05-21T12:17:43.487Z,3.78
2018-05-21T12:20:11.278Z,4.87
2018-05-21T12:22:39.517Z,6.28
2018-05-21T12:25:06.977Z,3.47
2018-05-21T12:27:34.432Z,3.15
2018-05-21T12:30:01.998Z,6.10
2018-05-21T12:32:29.463Z,3.67
2018-05-21T12:34:57.037Z,3.35
2018-05-21T12:37:25.300Z,5.43
2018-05-21T12:39:52.866Z,5.18
2018-05-21T12:42:20.421Z,3.33
2018-05-21T12:44:48.135Z,3.42
2018-05-21T12:47:15.612Z,3.33
2018-05-21T12:49:43.094Z,3.92
2018-05-21T12:52:10.569Z,3.65
2018-05-21T12:54:38.799Z,3.35
2018-05-21T12:57:06.323Z,6.68
2018-05-21T12:59:33.865Z,5.05
2018-05-21T13:02:02.092Z,3.67
2018-05-21T13:04:29.564Z,6.07
2018-05-21T13:06:57.018Z,4.03
2018-05-21T13:09:24.491Z,7.28
2018-05-21T13:11:51.972Z,10.13
2018-05-21T13:14:19.426Z,9.63
2018-05-21T13:16:47.691Z,12.65
2018-05-21T13:19:15.929Z,5.97
2018-05-21T13:21:43.416Z,3.60
2018-05-21T13:24:11.013Z,5.62
2018-05-21T13:26:39.217Z,10.60
2018-05-21T13:29:06.701Z,4.00
2018-05-21T13:31:34.269Z,9.82
2018-05-21T13:34:01.736Z,5.87
2018-05-21T13:36:29.969Z,21.65
2018-05-21T13:38:57.472Z,17.35
2018-05-21T13:41:25.740Z,12.05
2018-05-21T13:43:53.962Z,4.22
2018-05-21T13:46:21.421Z,5.18
2018-05-21T13:48:48.905Z,4.93
2018-05-21T13:51:16.355Z,4.78
2018-05-21T13:53:43.915Z,5.70
2018-05-21T13:56:11.366Z,3.92
2018-05-21T13:58:38.925Z,5.85
2018-05-21T14:01:06.384Z,3.92
2018-05-21T14:03:33.964Z,4.40
2018-05-21T14:06:01.470Z,5.12
2018-05-21T14:08:28.912Z,6.43
2018-05-21T14:10:56.406Z,5.32
2018-05-21T14:13:23.895Z,3.60
2018-05-21T14:15:51.454Z,6.03
2018-05-21T14:18:18.900Z,3.60
2018-05-21T14:20:46.479Z,5.68
2018-05-21T14:23:13.953Z,5.50
2018-05-21T14:25:42.199Z,4.12
2018-05-21T14:28:09.689Z,5.28
2018-05-21T14:30:37.143Z,3.60
2018-05-21T14:33:05.383Z,4.05
2018-05-21T14:35:32.838Z,6.05
2018-05-21T14:38:00.438Z,4.18
2018-05-21T14:40:27.903Z,3.47
2018-05-21T14:42:55.338Z,3.55
2018-05-21T14:45:23.603Z,5.30
2018-05-21T14:47:51.868Z,5.87
2018-05-21T14:50:19.344Z,7.28
2018-05-21T14:52:47.571Z,3.33
2018-05-21T14:55:15.044Z,6.22
2018-05-21T14:57:42.569Z,3.83
2018-05-21T15:00:10.051Z,6.37
2018-05-21T15:02:37.616Z,4.82
2018-05-21T15:05:05.205Z,3.03
2018-05-21T15:07:33.448Z,3.40
2018-05-21T15:10:00.922Z,3.55
2018-05-21T15:12:28.498Z,4.75
2018-05-21T15:14:56.760Z,6.55
2018-05-21T15:17:24.331Z,5.50
2018-05-21T15:19:52.598Z,3.50
2018-05-21T15:22:20.090Z,3.30
2018-05-21T15:24:47.498Z,4.40
2018-05-21T15:27:15.052Z,3.20
2018-05-21T15:29:43.392Z,3.12
2018-05-21T15:32:10.917Z,5.00
2018-05-21T15:37:29.871Z,4.10
2018-05-21T15:39:57.417Z,4.87
2018-05-21T15:42:24.920Z,3.40
2018-05-21T15:44:53.284Z,3.05
2018-05-21T15:47:21.392Z,3.40
2018-05-21T15:49:48.874Z,3.87
2018-05-21T15:52:16.364Z,5.90
2018-05-21T15:54:43.830Z,5.25
2018-05-21T15:57:12.216Z,3.83
2018-05-21T15:59:40.477Z,3.90
2018-05-21T16:02:08.012Z,3.58
2018-05-21T16:04:35.494Z,3.70
2018-05-21T16:07:02.938Z,4.87
2018-05-21T16:09:30.488Z,4.50
2018-05-21T16:11:57.955Z,4.03
2018-05-21T16:14:25.521Z,7.45
2018-05-21T16:16:53.013Z,4.05
2018-05-21T16:19:20.486Z,3.65
2018-05-21T16:21:47.925Z,3.30
2018-05-21T16:24:15.396Z,3.55
2018-05-21T16:26:42.865Z,3.50
2018-05-21T16:29:10.316Z,3.40
2018-05-21T16:31:37.780Z,4.10
2018-05-21T16:34:05.240Z,3.92
2018-05-21T16:36:32.724Z,5.37
2018-05-21T16:39:00.396Z,2.97
2018-05-21T16:41:28.001Z,5.12
2018-05-21T16:43:55.391Z,3.50
2018-05-21T16:46:22.887Z,4.07
2018-05-21T16:48:51.090Z,5.20
2018-05-21T16:51:18.598Z,4.18
2018-05-21T16:53:46.093Z,3.75
2018-05-21T16:56:13.561Z,3.45
2018-05-21T16:58:41.025Z,5.60
2018-05-21T17:01:08.512Z,3.50
2018-05-21T17:03:36.038Z,3.70
2018-05-21T17:06:03.552Z,4.15
2018-05-21T17:08:31.784Z,3.75
2018-05-21T17:10:59.285Z,3.85
2018-05-21T17:13:26.994Z,8.80
2018-05-21T17:15:54.455Z,4.22
2018-05-21T17:18:21.921Z,5.22
2018-05-21T17:20:49.415Z,4.00
2018-05-21T17:23:16.874Z,3.30
2018-05-21T17:25:44.379Z,3.85
2018-05-21T17:28:11.881Z,3.60
2018-05-21T17:30:39.334Z,4.75
2018-05-21T17:33:06.876Z,5.05
2018-05-21T17:35:34.400Z,3.95
2018-05-21T17:38:02.022Z,4.68
2018-05-21T17:40:29.491Z,4.45
2018-05-21T17:42:57.766Z,4.60
2018-05-21T17:45:26.034Z,4.85
2018-05-21T17:47:53.503Z,6.75
2018-05-21T17:50:21.729Z,7.00
2018-05-21T17:52:49.199Z,5.00
2018-05-21T17:55:16.738Z,5.93
2018-05-21T17:57:44.269Z,4.47
2018-05-21T18:00:11.741Z,5.22
2018-05-21T18:02:39.192Z,5.20
2018-05-21T18:05:06.635Z,6.43
2018-05-21T18:07:34.109Z,4.70
2018-05-21T18:10:01.672Z,5.97
2018-05-21T18:12:29.127Z,6.32
2018-05-21T18:14:56.627Z,5.15
2018-05-21T18:17:24.121Z,6.10
2018-05-21T18:19:52.344Z,3.47
2018-05-21T18:22:20.858Z,13.43
2018-05-21T18:24:49.112Z,3.78
2018-05-21T18:27:16.736Z,5.18
2018-05-21T18:29:44.228Z,3.75
2018-05-21T18:32:11.813Z,3.95
2018-05-21T18:34:39.341Z,5.82
2018-05-21T18:37:07.028Z,3.60
2018-05-21T18:39:34.489Z,3.85
2018-05-21T18:42:02.030Z,4.10
2018-05-21T18:44:29.546Z,5.07
2018-05-21T18:46:57.007Z,3.75
2018-05-21T18:49:24.491Z,7.20
2018-05-21T18:51:51.959Z,6.65
2018-05-21T18:54:19.454Z,4.28
2018-05-21T18:56:47.689Z,5.60
2018-05-21T18:59:15.239Z,5.28
2018-05-21T19:01:42.736Z,5.40
2018-05-21T19:04:10.963Z,4.78
2018-05-21T19:06:38.413Z,4.00
2018-05-21T19:09:06.265Z,7.37
2018-05-21T19:11:33.741Z,6.28
2018-05-21T19:14:01.186Z,5.93
2018-05-21T19:16:28.654Z,6.55
2018-05-21T19:18:56.151Z,5.75
2018-05-21T19:21:23.612Z,4.47
2018-05-21T19:23:51.865Z,7.40
2018-05-21T19:26:20.201Z,7.28
2018-05-21T19:28:47.668Z,4.68
2018-05-21T19:31:15.144Z,4.78
2018-05-21T19:33:42.625Z,4.75
2018-05-21T19:36:10.910Z,6.82
2018-05-21T19:38:38.471Z,6.68
2018-05-21T19:41:06.703Z,8.38
2018-05-21T19:43:34.240Z,13.25
2018-05-21T19:46:01.708Z,11.32
2018-05-21T19:48:29.169Z,9.32
2018-05-21T19:50:56.690Z,11.23
2018-05-21T19:53:24.946Z,9.57
2018-05-21T19:55:52.464Z,10.80
2018-05-21T19:58:19.963Z,6.90
2018-05-21T20:00:47.408Z,4.80
2018-05-21T20:03:14.900Z,4.95
2018-05-21T20:05:42.375Z,4.22
2018-05-21T20:08:09.835Z,7.03
2018-05-21T20:10:37.311Z,5.57
2018-05-21T20:13:04.756Z,5.87
2018-05-21T20:15:32.244Z,6.82
2018-05-21T20:17:59.691Z,5.50
2018-05-21T20:20:46.421Z,3.67
2018-05-21T20:23:14.004Z,4.22
2018-05-21T20:25:42.273Z,3.62
2018-05-21T20:28:10.580Z,3.50
2018-05-21T20:30:38.028Z,4.10
2018-05-21T20:33:05.495Z,4.78
2018-05-21T20:35:32.973Z,5.10
2018-05-21T20:38:00.509Z,4.82
2018-05-21T20:40:27.962Z,4.78
2018-05-21T20:42:55.451Z,6.47
2018-05-21T20:45:22.994Z,5.53
2018-05-21T20:47:50.408Z,7.60
2018-05-21T20:50:18.688Z,12.32
2018-05-21T20:52:46.991Z,10.05
2018-05-21T20:55:14.470Z,7.05
2018-05-21T20:57:41.947Z,6.15
2018-05-21T21:00:09.441Z,4.75
2018-05-21T21:02:36.892Z,6.72
2018-05-21T21:05:05.123Z,5.97
2018-05-21T21:07:32.716Z,4.97
2018-05-21T21:10:00.185Z,5.47
2018-05-21T21:12:28.412Z,5.97
2018-05-21T21:14:55.982Z,4.65
2018-05-21T21:17:23.483Z,7.72
2018-05-21T21:19:51.736Z,5.25
2018-05-21T21:22:19.225Z,5.63
2018-05-21T21:24:46.732Z,6.43
2018-05-21T21:27:14.192Z,6.60
2018-05-21T21:29:41.751Z,6.03
2018-05-21T21:32:09.208Z,5.47
2018-05-21T21:34:36.681Z,5.97
2018-05-21T21:37:04.211Z,6.03
2018-05-21T21:39:31.777Z,5.77
2018-05-21T21:41:59.917Z,4.82
2018-05-21T21:44:28.239Z,5.47
2018-05-21T21:46:55.787Z,5.40
2018-05-21T21:49:23.254Z,6.70
2018-05-21T21:51:50.732Z,7.60
2018-05-21T21:54:18.970Z,5.13
2018-05-21T21:56:46.463Z,7.93
2018-05-21T21:59:14.680Z,7.43
2018-05-21T22:01:42.181Z,6.50
2018-05-21T22:04:09.723Z,5.97
2018-05-21T22:06:37.175Z,6.17
2018-05-21T22:09:05.564Z,7.63
2018-05-21T22:11:33.135Z,9.43
2018-05-21T22:14:00.646Z,7.77
2018-05-21T22:16:28.086Z,6.83
2018-05-21T22:18:55.616Z,6.07
2018-05-21T22:21:23.052Z,7.63
2018-05-21T22:23:51.389Z,7.73
2018-05-21T22:26:18.890Z,5.80
2018-05-21T22:28:46.356Z,6.20
2018-05-21T22:31:13.889Z,5.13
2018-05-21T22:33:41.375Z,6.83
2018-05-21T22:36:08.928Z,5.70
2018-05-21T22:38:36.409Z,9.10
2018-05-21T22:41:04.649Z,9.30
2018-05-21T22:43:32.137Z,11.47
2018-05-21T22:46:00.383Z,14.23
2018-05-21T22:48:27.844Z,11.83
2018-05-21T22:50:55.298Z,8.33
2018-05-21T22:53:22.774Z,8.37
2018-05-21T22:55:50.320Z,6.30
2018-05-21T22:58:17.908Z,4.83
2018-05-21T23:00:46.151Z,7.57
2018-05-21T23:03:13.696Z,7.37
2018-05-21T23:05:41.154Z,4.97
2018-05-21T23:08:08.728Z,4.63
2018-05-21T23:10:36.283Z,6.20
2018-05-21T23:13:03.744Z,4.37
2018-05-21T23:15:31.223Z,5.23
2018-05-21T23:17:59.494Z,7.40
2018-05-21T23:20:26.963Z,8.17
2018-05-21T23:22:55.180Z,7.23
2018-05-21T23:25:22.651Z,5.33
2018-05-21T23:27:50.119Z,6.83
2018-05-21T23:30:17.589Z,6.27
2018-05-21T23:32:45.059Z,5.20
2018-05-21T23:35:13.319Z,7.47
2018-05-21T23:37:40.770Z,7.87
2018-05-21T23:40:08.247Z,6.07
2018-05-21T23:42:36.492Z,5.53
2018-05-21T23:45:03.956Z,7.00
2018-05-21T23:47:31.427Z,9.63
2018-05-21T23:49:58.955Z,5.60
2018-05-21T23:52:26.477Z,9.07
2018-05-21T23:54:53.989Z,8.40
2018-05-21T23:57:21.436Z,7.00
2018-05-21T23:59:48.908Z,5.37
